Terminal Aerodrome Forecast
Issued by NWS Paducah, KY

Home | Current Version | Previous Version | Text Only | Print | Product List | Glossary Off
Versions: 1 2 3 4 5 6 7 8 9 10 11 12 13 14 15 16 17 18 19

000
FTUS43 KPAH 231735 AAB
TAFEVV
TAF AMD
KEVV 231735Z 2318/2418 22006KT 2SM SHRA BR BKN007 OVC025
      TEMPO 2318/2320 4SM -SHRA BR SCT007 OVC015
     FM232000 25006KT P6SM VCTS BKN025CB
     FM240000 30008KT P6SM BKN045
     FM240300 33005KT P6SM BKN200=

USA.gov is the U.S. government's official web portal to all federal, state and local government web resources and services.